sensor_id;sensor_type;location;lat;lon;timestamp;P1;durP1;ratioP1;P2;durP2;ratioP2
69627;SDS011;56850;51.984;5.088;2024-02-21T00:00:47;10.40;;;4.30;;
69627;SDS011;56850;51.984;5.088;2024-02-21T00:03:14;10.23;;;3.63;;
69627;SDS011;56850;51.984;5.088;2024-02-21T00:05:41;7.85;;;4.05;;
69627;SDS011;56850;51.984;5.088;2024-02-21T00:08:08;11.77;;;4.00;;
69627;SDS011;56850;51.984;5.088;2024-02-21T00:10:35;6.88;;;3.92;;
69627;SDS011;56850;51.984;5.088;2024-02-21T00:13:02;11.03;;;4.07;;
69627;SDS011;56850;51.984;5.088;2024-02-21T00:15:29;12.38;;;3.78;;
69627;SDS011;56850;51.984;5.088;2024-02-21T00:17:56;11.43;;;4.03;;
69627;SDS011;56850;51.984;5.088;2024-02-21T00:20:23;10.35;;;3.72;;
69627;SDS011;56850;51.984;5.088;2024-02-21T00:22:51;12.70;;;3.90;;
69627;SDS011;56850;51.984;5.088;2024-02-21T00:25:19;8.33;;;3.77;;
69627;SDS011;56850;51.984;5.088;2024-02-21T00:27:46;9.00;;;3.63;;
69627;SDS011;56850;51.984;5.088;2024-02-21T00:30:13;10.77;;;3.83;;
69627;SDS011;56850;51.984;5.088;2024-02-21T00:32:40;9.80;;;3.55;;
69627;SDS011;56850;51.984;5.088;2024-02-21T00:35:07;10.13;;;3.67;;
69627;SDS011;56850;51.984;5.088;2024-02-21T00:37:34;9.97;;;3.30;;
69627;SDS011;56850;51.984;5.088;2024-02-21T00:40:01;12.80;;;3.75;;
69627;SDS011;56850;51.984;5.088;2024-02-21T00:42:28;11.40;;;3.53;;
69627;SDS011;56850;51.984;5.088;2024-02-21T00:44:54;10.40;;;4.15;;
69627;SDS011;56850;51.984;5.088;2024-02-21T00:47:21;7.70;;;3.70;;
69627;SDS011;56850;51.984;5.088;2024-02-21T00:49:48;6.90;;;3.10;;
69627;SDS011;56850;51.984;5.088;2024-02-21T00:52:15;8.02;;;3.20;;
69627;SDS011;56850;51.984;5.088;2024-02-21T00:54:42;10.63;;;3.75;;
69627;SDS011;56850;51.984;5.088;2024-02-21T00:57:19;7.90;;;3.83;;
69627;SDS011;56850;51.984;5.088;2024-02-21T00:59:46;10.35;;;4.00;;
69627;SDS011;56850;51.984;5.088;2024-02-21T01:02:13;5.63;;;3.03;;
69627;SDS011;56850;51.984;5.088;2024-02-21T01:04:40;8.77;;;3.53;;
69627;SDS011;56850;51.984;5.088;2024-02-21T01:07:07;10.48;;;3.47;;
69627;SDS011;56850;51.984;5.088;2024-02-21T01:09:34;11.93;;;3.80;;
69627;SDS011;56850;51.984;5.088;2024-02-21T01:12:00;9.70;;;3.78;;
69627;SDS011;56850;51.984;5.088;2024-02-21T01:14:27;11.73;;;4.37;;
69627;SDS011;56850;51.984;5.088;2024-02-21T01:16:54;9.38;;;3.15;;
69627;SDS011;56850;51.984;5.088;2024-02-21T01:19:21;8.23;;;3.50;;
69627;SDS011;56850;51.984;5.088;2024-02-21T01:21:48;12.75;;;4.00;;
69627;SDS011;56850;51.984;5.088;2024-02-21T01:24:15;11.70;;;3.63;;
69627;SDS011;56850;51.984;5.088;2024-02-21T01:26:42;9.70;;;3.53;;
69627;SDS011;56850;51.984;5.088;2024-02-21T01:29:09;10.90;;;3.67;;
69627;SDS011;56850;51.984;5.088;2024-02-21T01:31:36;7.78;;;3.67;;
69627;SDS011;56850;51.984;5.088;2024-02-21T01:34:03;9.52;;;3.35;;
69627;SDS011;56850;51.984;5.088;2024-02-21T01:36:30;9.63;;;4.40;;
69627;SDS011;56850;51.984;5.088;2024-02-21T01:38:57;10.50;;;3.90;;
69627;SDS011;56850;51.984;5.088;2024-02-21T01:41:23;10.80;;;4.15;;
69627;SDS011;56850;51.984;5.088;2024-02-21T01:43:50;11.68;;;3.90;;
69627;SDS011;56850;51.984;5.088;2024-02-21T01:46:18;11.07;;;3.40;;
69627;SDS011;56850;51.984;5.088;2024-02-21T01:48:45;10.27;;;3.88;;
69627;SDS011;56850;51.984;5.088;2024-02-21T01:51:12;9.00;;;3.53;;
69627;SDS011;56850;51.984;5.088;2024-02-21T01:53:42;10.32;;;3.40;;
69627;SDS011;56850;51.984;5.088;2024-02-21T01:56:10;10.70;;;3.75;;
69627;SDS011;56850;51.984;5.088;2024-02-21T01:58:39;9.38;;;3.58;;
69627;SDS011;56850;51.984;5.088;2024-02-21T02:01:09;8.48;;;3.25;;
69627;SDS011;56850;51.984;5.088;2024-02-21T02:03:37;9.30;;;3.70;;
69627;SDS011;56850;51.984;5.088;2024-02-21T02:06:04;12.80;;;3.45;;
69627;SDS011;56850;51.984;5.088;2024-02-21T02:08:32;9.60;;;3.60;;
69627;SDS011;56850;51.984;5.088;2024-02-21T02:10:59;12.90;;;3.83;;
69627;SDS011;56850;51.984;5.088;2024-02-21T02:13:27;8.10;;;3.60;;
69627;SDS011;56850;51.984;5.088;2024-02-21T02:15:55;11.67;;;3.80;;
69627;SDS011;56850;51.984;5.088;2024-02-21T02:18:22;11.57;;;3.40;;
69627;SDS011;56850;51.984;5.088;2024-02-21T02:20:48;7.55;;;3.15;;
69627;SDS011;56850;51.984;5.088;2024-02-21T02:23:23;10.65;;;3.58;;
69627;SDS011;56850;51.984;5.088;2024-02-21T02:25:55;7.63;;;3.85;;
69627;SDS011;56850;51.984;5.088;2024-02-21T02:28:23;9.70;;;3.90;;
69627;SDS011;56850;51.984;5.088;2024-02-21T02:30:50;9.85;;;4.00;;
69627;SDS011;56850;51.984;5.088;2024-02-21T02:33:17;7.07;;;3.45;;
69627;SDS011;56850;51.984;5.088;2024-02-21T02:35:45;8.32;;;3.45;;
69627;SDS011;56850;51.984;5.088;2024-02-21T02:38:12;10.38;;;4.35;;
69627;SDS011;56850;51.984;5.088;2024-02-21T02:40:40;7.77;;;3.37;;
69627;SDS011;56850;51.984;5.088;2024-02-21T02:43:08;7.32;;;3.55;;
69627;SDS011;56850;51.984;5.088;2024-02-21T02:45:36;9.35;;;3.42;;
69627;SDS011;56850;51.984;5.088;2024-02-21T02:48:05;7.90;;;3.70;;
69627;SDS011;56850;51.984;5.088;2024-02-21T02:50:33;9.30;;;4.20;;
69627;SDS011;56850;51.984;5.088;2024-02-21T02:53:00;7.93;;;4.00;;
69627;SDS011;56850;51.984;5.088;2024-02-21T02:55:27;9.90;;;4.15;;
69627;SDS011;56850;51.984;5.088;2024-02-21T02:57:54;11.75;;;3.90;;
69627;SDS011;56850;51.984;5.088;2024-02-21T03:00:21;9.73;;;4.00;;
69627;SDS011;56850;51.984;5.088;2024-02-21T03:02:48;11.98;;;4.30;;
69627;SDS011;56850;51.984;5.088;2024-02-21T03:05:17;9.00;;;3.57;;
69627;SDS011;56850;51.984;5.088;2024-02-21T03:07:45;7.85;;;3.70;;
69627;SDS011;56850;51.984;5.088;2024-02-21T03:10:13;9.13;;;3.72;;
69627;SDS011;56850;51.984;5.088;2024-02-21T03:12:43;9.20;;;3.70;;
69627;SDS011;56850;51.984;5.088;2024-02-21T03:15:10;7.45;;;3.90;;
69627;SDS011;56850;51.984;5.088;2024-02-21T03:17:38;8.90;;;4.10;;
69627;SDS011;56850;51.984;5.088;2024-02-21T03:20:06;7.05;;;3.60;;
69627;SDS011;56850;51.984;5.088;2024-02-21T03:22:38;5.93;;;3.33;;
69627;SDS011;56850;51.984;5.088;2024-02-21T03:25:06;11.77;;;3.42;;
69627;SDS011;56850;51.984;5.088;2024-02-21T03:27:34;7.10;;;4.05;;
69627;SDS011;56850;51.984;5.088;2024-02-21T03:30:00;9.03;;;4.17;;
69627;SDS011;56850;51.984;5.088;2024-02-21T03:32:27;7.60;;;4.28;;
69627;SDS011;56850;51.984;5.088;2024-02-21T03:34:55;5.97;;;3.70;;
69627;SDS011;56850;51.984;5.088;2024-02-21T03:37:22;8.75;;;3.67;;
69627;SDS011;56850;51.984;5.088;2024-02-21T03:39:49;7.32;;;3.58;;
69627;SDS011;56850;51.984;5.088;2024-02-21T03:42:16;8.03;;;3.87;;
69627;SDS011;56850;51.984;5.088;2024-02-21T03:44:43;10.05;;;4.30;;
69627;SDS011;56850;51.984;5.088;2024-02-21T03:47:10;6.57;;;3.80;;
69627;SDS011;56850;51.984;5.088;2024-02-21T03:49:38;6.57;;;3.83;;
69627;SDS011;56850;51.984;5.088;2024-02-21T03:52:05;9.52;;;3.90;;
69627;SDS011;56850;51.984;5.088;2024-02-21T03:54:32;10.67;;;4.07;;
69627;SDS011;56850;51.984;5.088;2024-02-21T03:56:59;5.68;;;3.58;;
69627;SDS011;56850;51.984;5.088;2024-02-21T03:59:26;6.60;;;3.75;;
69627;SDS011;56850;51.984;5.088;2024-02-21T04:01:53;8.25;;;4.00;;
69627;SDS011;56850;51.984;5.088;2024-02-21T04:04:20;6.13;;;3.88;;
69627;SDS011;56850;51.984;5.088;2024-02-21T04:06:51;10.50;;;4.30;;
69627;SDS011;56850;51.984;5.088;2024-02-21T04:09:18;7.13;;;3.95;;
69627;SDS011;56850;51.984;5.088;2024-02-21T04:11:45;9.20;;;4.20;;
69627;SDS011;56850;51.984;5.088;2024-02-21T04:14:12;9.30;;;4.13;;
69627;SDS011;56850;51.984;5.088;2024-02-21T04:16:39;8.70;;;4.57;;
69627;SDS011;56850;51.984;5.088;2024-02-21T04:19:06;7.77;;;4.13;;
69627;SDS011;56850;51.984;5.088;2024-02-21T04:21:35;8.63;;;3.97;;
69627;SDS011;56850;51.984;5.088;2024-02-21T04:24:02;8.43;;;4.65;;
69627;SDS011;56850;51.984;5.088;2024-02-21T04:26:32;8.70;;;4.25;;
69627;SDS011;56850;51.984;5.088;2024-02-21T04:28:59;6.88;;;4.43;;
69627;SDS011;56850;51.984;5.088;2024-02-21T04:31:27;9.67;;;4.10;;
69627;SDS011;56850;51.984;5.088;2024-02-21T04:33:54;7.47;;;4.28;;
69627;SDS011;56850;51.984;5.088;2024-02-21T04:36:22;9.45;;;4.57;;
69627;SDS011;56850;51.984;5.088;2024-02-21T04:38:50;7.80;;;4.47;;
69627;SDS011;56850;51.984;5.088;2024-02-21T04:41:17;11.13;;;4.53;;
69627;SDS011;56850;51.984;5.088;2024-02-21T04:43:45;6.37;;;4.30;;
69627;SDS011;56850;51.984;5.088;2024-02-21T04:46:12;8.30;;;4.75;;
69627;SDS011;56850;51.984;5.088;2024-02-21T04:48:39;8.27;;;4.68;;
69627;SDS011;56850;51.984;5.088;2024-02-21T04:51:06;8.27;;;5.00;;
69627;SDS011;56850;51.984;5.088;2024-02-21T04:53:33;8.23;;;4.30;;
69627;SDS011;56850;51.984;5.088;2024-02-21T04:56:00;8.67;;;4.63;;
69627;SDS011;56850;51.984;5.088;2024-02-21T04:58:27;12.25;;;5.30;;
69627;SDS011;56850;51.984;5.088;2024-02-21T05:00:54;8.23;;;4.93;;
69627;SDS011;56850;51.984;5.088;2024-02-21T05:03:21;11.98;;;5.22;;
69627;SDS011;56850;51.984;5.088;2024-02-21T05:05:48;7.03;;;4.93;;
69627;SDS011;56850;51.984;5.088;2024-02-21T05:08:16;8.50;;;5.10;;
69627;SDS011;56850;51.984;5.088;2024-02-21T05:10:42;8.65;;;4.75;;
69627;SDS011;56850;51.984;5.088;2024-02-21T05:13:10;9.38;;;5.20;;
69627;SDS011;56850;51.984;5.088;2024-02-21T05:15:37;8.13;;;4.95;;
69627;SDS011;56850;51.984;5.088;2024-02-21T05:18:03;8.93;;;5.40;;
69627;SDS011;56850;51.984;5.088;2024-02-21T05:20:31;8.77;;;4.73;;
69627;SDS011;56850;51.984;5.088;2024-02-21T05:22:58;9.35;;;4.72;;
69627;SDS011;56850;51.984;5.088;2024-02-21T05:25:25;8.40;;;4.95;;
69627;SDS011;56850;51.984;5.088;2024-02-21T05:27:52;8.82;;;5.00;;
69627;SDS011;56850;51.984;5.088;2024-02-21T05:30:20;9.05;;;5.15;;
69627;SDS011;56850;51.984;5.088;2024-02-21T05:32:50;8.13;;;4.70;;
69627;SDS011;56850;51.984;5.088;2024-02-21T05:35:17;8.18;;;5.20;;
69627;SDS011;56850;51.984;5.088;2024-02-21T05:37:44;7.18;;;5.47;;
69627;SDS011;56850;51.984;5.088;2024-02-21T05:40:13;11.75;;;5.65;;
69627;SDS011;56850;51.984;5.088;2024-02-21T05:42:40;10.68;;;5.35;;
69627;SDS011;56850;51.984;5.088;2024-02-21T05:45:07;11.43;;;5.57;;
69627;SDS011;56850;51.984;5.088;2024-02-21T05:47:34;9.70;;;5.50;;
69627;SDS011;56850;51.984;5.088;2024-02-21T05:50:01;10.95;;;5.70;;
69627;SDS011;56850;51.984;5.088;2024-02-21T05:52:28;10.15;;;5.72;;
69627;SDS011;56850;51.984;5.088;2024-02-21T05:54:55;12.48;;;5.93;;
69627;SDS011;56850;51.984;5.088;2024-02-21T05:57:23;9.83;;;5.93;;
69627;SDS011;56850;51.984;5.088;2024-02-21T05:59:50;10.57;;;6.15;;
69627;SDS011;56850;51.984;5.088;2024-02-21T06:02:17;11.20;;;6.35;;
69627;SDS011;56850;51.984;5.088;2024-02-21T06:04:44;8.00;;;5.50;;
69627;SDS011;56850;51.984;5.088;2024-02-21T06:07:12;8.82;;;6.20;;
69627;SDS011;56850;51.984;5.088;2024-02-21T06:09:39;12.67;;;6.27;;
69627;SDS011;56850;51.984;5.088;2024-02-21T06:12:06;10.52;;;6.07;;
69627;SDS011;56850;51.984;5.088;2024-02-21T06:14:33;16.13;;;8.32;;
69627;SDS011;56850;51.984;5.088;2024-02-21T06:17:03;8.35;;;6.50;;
69627;SDS011;56850;51.984;5.088;2024-02-21T06:19:30;11.32;;;6.53;;
69627;SDS011;56850;51.984;5.088;2024-02-21T06:21:57;11.77;;;6.30;;
69627;SDS011;56850;51.984;5.088;2024-02-21T06:24:24;10.73;;;6.90;;
69627;SDS011;56850;51.984;5.088;2024-02-21T06:26:51;12.35;;;7.15;;
69627;SDS011;56850;51.984;5.088;2024-02-21T06:29:18;12.18;;;7.05;;
69627;SDS011;56850;51.984;5.088;2024-02-21T06:31:44;8.75;;;6.25;;
69627;SDS011;56850;51.984;5.088;2024-02-21T06:34:11;11.30;;;6.73;;
69627;SDS011;56850;51.984;5.088;2024-02-21T06:36:38;14.57;;;6.80;;
69627;SDS011;56850;51.984;5.088;2024-02-21T06:39:05;11.65;;;7.20;;
69627;SDS011;56850;51.984;5.088;2024-02-21T06:41:35;11.18;;;6.70;;
69627;SDS011;56850;51.984;5.088;2024-02-21T06:44:02;10.77;;;7.50;;
69627;SDS011;56850;51.984;5.088;2024-02-21T06:46:30;13.70;;;7.00;;
69627;SDS011;56850;51.984;5.088;2024-02-21T06:48:57;15.23;;;7.47;;
69627;SDS011;56850;51.984;5.088;2024-02-21T06:51:26;12.40;;;7.18;;
69627;SDS011;56850;51.984;5.088;2024-02-21T06:53:53;11.88;;;7.47;;
69627;SDS011;56850;51.984;5.088;2024-02-21T06:56:22;11.00;;;7.10;;
69627;SDS011;56850;51.984;5.088;2024-02-21T06:58:53;15.37;;;7.40;;
69627;SDS011;56850;51.984;5.088;2024-02-21T07:01:21;13.88;;;7.35;;
69627;SDS011;56850;51.984;5.088;2024-02-21T07:03:48;11.85;;;7.70;;
69627;SDS011;56850;51.984;5.088;2024-02-21T07:06:14;14.20;;;7.22;;
69627;SDS011;56850;51.984;5.088;2024-02-21T07:08:41;12.50;;;7.68;;
69627;SDS011;56850;51.984;5.088;2024-02-21T07:11:08;10.63;;;6.80;;
69627;SDS011;56850;51.984;5.088;2024-02-21T07:13:35;12.52;;;7.40;;
69627;SDS011;56850;51.984;5.088;2024-02-21T07:16:02;12.98;;;7.47;;
69627;SDS011;56850;51.984;5.088;2024-02-21T07:18:29;13.10;;;7.20;;
69627;SDS011;56850;51.984;5.088;2024-02-21T07:20:56;13.00;;;7.75;;
69627;SDS011;56850;51.984;5.088;2024-02-21T07:23:24;13.63;;;7.63;;
69627;SDS011;56850;51.984;5.088;2024-02-21T07:25:51;11.55;;;7.97;;
69627;SDS011;56850;51.984;5.088;2024-02-21T07:28:18;13.15;;;7.43;;
69627;SDS011;56850;51.984;5.088;2024-02-21T07:30:45;12.10;;;7.55;;
69627;SDS011;56850;51.984;5.088;2024-02-21T07:33:12;17.65;;;8.13;;
69627;SDS011;56850;51.984;5.088;2024-02-21T07:35:39;11.67;;;8.00;;
69627;SDS011;56850;51.984;5.088;2024-02-21T07:38:08;14.00;;;7.43;;
69627;SDS011;56850;51.984;5.088;2024-02-21T07:40:39;13.25;;;7.78;;
69627;SDS011;56850;51.984;5.088;2024-02-21T07:43:05;15.50;;;7.95;;
69627;SDS011;56850;51.984;5.088;2024-02-21T07:45:32;13.77;;;8.38;;
69627;SDS011;56850;51.984;5.088;2024-02-21T07:47:59;12.67;;;7.80;;
69627;SDS011;56850;51.984;5.088;2024-02-21T07:50:26;13.07;;;8.20;;
69627;SDS011;56850;51.984;5.088;2024-02-21T07:52:53;12.80;;;7.78;;
69627;SDS011;56850;51.984;5.088;2024-02-21T07:55:23;14.25;;;8.13;;
69627;SDS011;56850;51.984;5.088;2024-02-21T07:57:50;14.30;;;8.25;;
69627;SDS011;56850;51.984;5.088;2024-02-21T08:00:17;13.93;;;7.93;;
69627;SDS011;56850;51.984;5.088;2024-02-21T08:02:50;14.57;;;7.90;;
69627;SDS011;56850;51.984;5.088;2024-02-21T08:05:17;15.48;;;8.20;;
69627;SDS011;56850;51.984;5.088;2024-02-21T08:07:44;15.07;;;8.18;;
69627;SDS011;56850;51.984;5.088;2024-02-21T08:10:11;12.93;;;8.00;;
69627;SDS011;56850;51.984;5.088;2024-02-21T08:12:38;12.93;;;7.27;;
69627;SDS011;56850;51.984;5.088;2024-02-21T08:15:05;11.52;;;8.15;;
69627;SDS011;56850;51.984;5.088;2024-02-21T08:17:37;16.20;;;8.20;;
69627;SDS011;56850;51.984;5.088;2024-02-21T08:20:04;12.52;;;7.38;;
69627;SDS011;56850;51.984;5.088;2024-02-21T08:22:31;14.73;;;8.75;;
69627;SDS011;56850;51.984;5.088;2024-02-21T08:24:58;14.83;;;7.90;;
69627;SDS011;56850;51.984;5.088;2024-02-21T08:27:25;14.23;;;8.80;;
69627;SDS011;56850;51.984;5.088;2024-02-21T08:29:52;15.85;;;9.75;;
69627;SDS011;56850;51.984;5.088;2024-02-21T08:32:19;16.95;;;9.55;;
69627;SDS011;56850;51.984;5.088;2024-02-21T08:34:46;16.80;;;9.52;;
69627;SDS011;56850;51.984;5.088;2024-02-21T08:37:13;18.80;;;9.03;;
69627;SDS011;56850;51.984;5.088;2024-02-21T08:39:40;15.85;;;9.50;;
69627;SDS011;56850;51.984;5.088;2024-02-21T08:42:07;18.02;;;9.70;;
69627;SDS011;56850;51.984;5.088;2024-02-21T08:44:34;16.73;;;9.30;;
69627;SDS011;56850;51.984;5.088;2024-02-21T08:47:01;17.90;;;8.73;;
69627;SDS011;56850;51.984;5.088;2024-02-21T08:49:30;16.03;;;8.43;;
69627;SDS011;56850;51.984;5.088;2024-02-21T08:52:01;16.77;;;8.75;;
69627;SDS011;56850;51.984;5.088;2024-02-21T08:54:30;16.40;;;8.55;;
69627;SDS011;56850;51.984;5.088;2024-02-21T08:56:57;13.93;;;7.88;;
69627;SDS011;56850;51.984;5.088;2024-02-21T08:59:24;16.00;;;8.20;;
69627;SDS011;56850;51.984;5.088;2024-02-21T09:01:52;14.03;;;7.37;;
69627;SDS011;56850;51.984;5.088;2024-02-21T09:04:20;17.08;;;8.20;;
69627;SDS011;56850;51.984;5.088;2024-02-21T09:06:47;14.57;;;7.80;;
69627;SDS011;56850;51.984;5.088;2024-02-21T09:09:14;24.40;;;8.48;;
69627;SDS011;56850;51.984;5.088;2024-02-21T09:11:41;17.80;;;8.40;;
69627;SDS011;56850;51.984;5.088;2024-02-21T09:14:09;14.97;;;7.70;;
69627;SDS011;56850;51.984;5.088;2024-02-21T09:16:36;23.50;;;8.13;;
69627;SDS011;56850;51.984;5.088;2024-02-21T09:19:03;17.95;;;7.88;;
69627;SDS011;56850;51.984;5.088;2024-02-21T09:21:30;14.80;;;7.63;;
69627;SDS011;56850;51.984;5.088;2024-02-21T09:23:58;18.17;;;7.68;;
69627;SDS011;56850;51.984;5.088;2024-02-21T09:26:26;14.97;;;7.73;;
69627;SDS011;56850;51.984;5.088;2024-02-21T09:28:53;13.95;;;7.40;;
69627;SDS011;56850;51.984;5.088;2024-02-21T09:31:20;15.23;;;7.65;;
69627;SDS011;56850;51.984;5.088;2024-02-21T09:33:47;14.82;;;7.50;;
69627;SDS011;56850;51.984;5.088;2024-02-21T09:36:14;11.88;;;7.28;;
69627;SDS011;56850;51.984;5.088;2024-02-21T09:38:41;14.20;;;6.67;;
69627;SDS011;56850;51.984;5.088;2024-02-21T09:43:35;14.75;;;6.75;;
69627;SDS011;56850;51.984;5.088;2024-02-21T09:46:06;12.60;;;7.25;;
69627;SDS011;56850;51.984;5.088;2024-02-21T09:51:23;11.27;;;6.53;;
69627;SDS011;56850;51.984;5.088;2024-02-21T09:53:53;15.27;;;6.95;;
69627;SDS011;56850;51.984;5.088;2024-02-21T09:56:36;12.40;;;6.80;;
69627;SDS011;56850;51.984;5.088;2024-02-21T09:59:04;11.65;;;6.95;;
69627;SDS011;56850;51.984;5.088;2024-02-21T10:01:32;12.52;;;7.32;;
69627;SDS011;56850;51.984;5.088;2024-02-21T10:04:01;10.70;;;6.77;;
69627;SDS011;56850;51.984;5.088;2024-02-21T10:06:29;12.05;;;6.72;;
69627;SDS011;56850;51.984;5.088;2024-02-21T10:08:57;10.88;;;6.85;;
69627;SDS011;56850;51.984;5.088;2024-02-21T10:11:24;14.85;;;7.45;;
69627;SDS011;56850;51.984;5.088;2024-02-21T10:14:02;10.13;;;6.53;;
69627;SDS011;56850;51.984;5.088;2024-02-21T10:16:33;13.20;;;6.53;;
69627;SDS011;56850;51.984;5.088;2024-02-21T10:19:01;9.80;;;6.25;;
69627;SDS011;56850;51.984;5.088;2024-02-21T10:21:30;8.65;;;6.18;;
69627;SDS011;56850;51.984;5.088;2024-02-21T10:23:58;11.07;;;6.57;;
69627;SDS011;56850;51.984;5.088;2024-02-21T10:26:26;8.35;;;6.03;;
69627;SDS011;56850;51.984;5.088;2024-02-21T10:28:53;8.37;;;5.93;;
69627;SDS011;56850;51.984;5.088;2024-02-21T10:31:22;9.20;;;6.35;;
69627;SDS011;56850;51.984;5.088;2024-02-21T10:33:59;9.75;;;6.53;;
69627;SDS011;56850;51.984;5.088;2024-02-21T10:36:30;9.43;;;6.40;;
69627;SDS011;56850;51.984;5.088;2024-02-21T10:38:57;8.20;;;5.20;;
69627;SDS011;56850;51.984;5.088;2024-02-21T10:41:24;8.57;;;5.43;;
69627;SDS011;56850;51.984;5.088;2024-02-21T10:43:54;8.35;;;5.22;;
69627;SDS011;56850;51.984;5.088;2024-02-21T10:46:22;8.93;;;5.63;;
69627;SDS011;56850;51.984;5.088;2024-02-21T10:49:10;7.93;;;5.50;;
69627;SDS011;56850;51.984;5.088;2024-02-21T10:51:42;12.68;;;6.35;;
69627;SDS011;56850;51.984;5.088;2024-02-21T10:56:56;10.10;;;5.00;;
69627;SDS011;56850;51.984;5.088;2024-02-21T10:59:24;10.15;;;5.63;;
69627;SDS011;56850;51.984;5.088;2024-02-21T11:01:55;10.23;;;5.50;;
69627;SDS011;56850;51.984;5.088;2024-02-21T11:04:25;9.52;;;5.50;;
69627;SDS011;56850;51.984;5.088;2024-02-21T11:06:53;9.57;;;6.03;;
69627;SDS011;56850;51.984;5.088;2024-02-21T11:09:29;8.18;;;5.90;;
69627;SDS011;56850;51.984;5.088;2024-02-21T11:11:58;10.93;;;5.95;;
69627;SDS011;56850;51.984;5.088;2024-02-21T11:14:30;10.07;;;7.45;;
69627;SDS011;56850;51.984;5.088;2024-02-21T11:17:15;9.63;;;7.45;;
69627;SDS011;56850;51.984;5.088;2024-02-21T11:19:43;9.47;;;6.20;;
69627;SDS011;56850;51.984;5.088;2024-02-21T11:22:15;8.30;;;6.47;;
69627;SDS011;56850;51.984;5.088;2024-02-21T11:24:46;8.73;;;6.45;;
69627;SDS011;56850;51.984;5.088;2024-02-21T11:29:48;9.90;;;7.75;;
69627;SDS011;56850;51.984;5.088;2024-02-21T11:32:19;10.60;;;7.40;;
69627;SDS011;56850;51.984;5.088;2024-02-21T11:34:59;8.75;;;7.05;;
69627;SDS011;56850;51.984;5.088;2024-02-21T11:37:34;9.30;;;7.40;;
69627;SDS011;56850;51.984;5.088;2024-02-21T11:40:06;8.93;;;6.78;;
69627;SDS011;56850;51.984;5.088;2024-02-21T11:42:38;7.93;;;7.10;;
69627;SDS011;56850;51.984;5.088;2024-02-21T11:45:06;9.80;;;6.47;;
69627;SDS011;56850;51.984;5.088;2024-02-21T11:47:35;7.57;;;6.32;;
69627;SDS011;56850;51.984;5.088;2024-02-21T11:50:09;10.65;;;6.97;;
69627;SDS011;56850;51.984;5.088;2024-02-21T11:52:36;8.77;;;7.13;;
69627;SDS011;56850;51.984;5.088;2024-02-21T11:55:04;10.30;;;7.05;;
69627;SDS011;56850;51.984;5.088;2024-02-21T11:57:35;11.37;;;6.30;;
69627;SDS011;56850;51.984;5.088;2024-02-21T12:00:14;12.10;;;6.30;;
69627;SDS011;56850;51.984;5.088;2024-02-21T12:02:45;9.15;;;6.18;;
69627;SDS011;56850;51.984;5.088;2024-02-21T12:05:12;7.22;;;6.32;;
69627;SDS011;56850;51.984;5.088;2024-02-21T12:07:40;8.40;;;6.15;;
69627;SDS011;56850;51.984;5.088;2024-02-21T12:10:11;8.97;;;5.73;;
69627;SDS011;56850;51.984;5.088;2024-02-21T12:12:38;8.25;;;5.80;;
69627;SDS011;56850;51.984;5.088;2024-02-21T12:15:06;8.05;;;6.65;;
69627;SDS011;56850;51.984;5.088;2024-02-21T12:17:34;9.43;;;6.22;;
69627;SDS011;56850;51.984;5.088;2024-02-21T12:20:02;10.15;;;6.28;;
69627;SDS011;56850;51.984;5.088;2024-02-21T12:22:36;7.60;;;5.87;;
69627;SDS011;56850;51.984;5.088;2024-02-21T12:25:04;12.23;;;5.55;;
69627;SDS011;56850;51.984;5.088;2024-02-21T12:27:41;8.23;;;5.90;;
69627;SDS011;56850;51.984;5.088;2024-02-21T12:30:08;8.95;;;5.65;;
69627;SDS011;56850;51.984;5.088;2024-02-21T12:32:36;11.65;;;6.20;;
69627;SDS011;56850;51.984;5.088;2024-02-21T12:35:03;10.50;;;5.03;;
69627;SDS011;56850;51.984;5.088;2024-02-21T12:37:33;8.77;;;5.13;;
69627;SDS011;56850;51.984;5.088;2024-02-21T12:40:08;8.25;;;5.50;;
69627;SDS011;56850;51.984;5.088;2024-02-21T12:42:36;7.57;;;5.53;;
69627;SDS011;56850;51.984;5.088;2024-02-21T12:45:03;9.40;;;5.93;;
69627;SDS011;56850;51.984;5.088;2024-02-21T12:47:33;7.53;;;5.33;;
69627;SDS011;56850;51.984;5.088;2024-02-21T12:49:59;8.70;;;5.05;;
69627;SDS011;56850;51.984;5.088;2024-02-21T12:52:27;8.32;;;5.60;;
69627;SDS011;56850;51.984;5.088;2024-02-21T12:54:54;6.13;;;5.20;;
69627;SDS011;56850;51.984;5.088;2024-02-21T12:57:24;10.07;;;5.90;;
69627;SDS011;56850;51.984;5.088;2024-02-21T12:59:53;8.00;;;4.77;;
69627;SDS011;56850;51.984;5.088;2024-02-21T13:02:20;8.48;;;5.00;;
69627;SDS011;56850;51.984;5.088;2024-02-21T13:04:48;7.47;;;4.72;;
69627;SDS011;56850;51.984;5.088;2024-02-21T13:07:15;9.90;;;5.00;;
69627;SDS011;56850;51.984;5.088;2024-02-21T13:09:42;7.07;;;4.40;;
69627;SDS011;56850;51.984;5.088;2024-02-21T13:12:09;7.07;;;4.80;;
69627;SDS011;56850;51.984;5.088;2024-02-21T13:14:36;7.68;;;4.10;;
69627;SDS011;56850;51.984;5.088;2024-02-21T13:17:05;9.88;;;4.85;;
69627;SDS011;56850;51.984;5.088;2024-02-21T13:19:33;5.75;;;3.78;;
69627;SDS011;56850;51.984;5.088;2024-02-21T13:22:00;11.05;;;4.50;;
69627;SDS011;56850;51.984;5.088;2024-02-21T13:24:29;8.23;;;4.27;;
69627;SDS011;56850;51.984;5.088;2024-02-21T13:26:56;8.23;;;4.65;;
69627;SDS011;56850;51.984;5.088;2024-02-21T13:29:23;7.97;;;4.05;;
69627;SDS011;56850;51.984;5.088;2024-02-21T13:31:50;6.68;;;4.45;;
69627;SDS011;56850;51.984;5.088;2024-02-21T13:34:18;6.55;;;4.88;;
69627;SDS011;56850;51.984;5.088;2024-02-21T13:36:45;6.27;;;4.33;;
69627;SDS011;56850;51.984;5.088;2024-02-21T13:39:12;8.13;;;4.97;;
69627;SDS011;56850;51.984;5.088;2024-02-21T13:41:42;6.60;;;4.13;;
69627;SDS011;56850;51.984;5.088;2024-02-21T13:44:10;9.05;;;4.45;;
69627;SDS011;56850;51.984;5.088;2024-02-21T13:46:38;7.72;;;4.95;;
69627;SDS011;56850;51.984;5.088;2024-02-21T13:49:06;8.17;;;4.37;;
69627;SDS011;56850;51.984;5.088;2024-02-21T13:51:34;10.45;;;4.53;;
69627;SDS011;56850;51.984;5.088;2024-02-21T13:54:04;8.48;;;4.90;;
69627;SDS011;56850;51.984;5.088;2024-02-21T13:56:36;9.00;;;4.55;;
69627;SDS011;56850;51.984;5.088;2024-02-21T13:59:03;8.50;;;4.65;;
69627;SDS011;56850;51.984;5.088;2024-02-21T14:01:31;8.33;;;4.30;;
69627;SDS011;56850;51.984;5.088;2024-02-21T14:03:59;9.15;;;4.38;;
69627;SDS011;56850;51.984;5.088;2024-02-21T14:06:26;7.18;;;4.32;;
69627;SDS011;56850;51.984;5.088;2024-02-21T14:08:53;8.20;;;4.10;;
69627;SDS011;56850;51.984;5.088;2024-02-21T14:11:20;8.00;;;4.50;;
69627;SDS011;56850;51.984;5.088;2024-02-21T14:13:47;6.53;;;4.77;;
69627;SDS011;56850;51.984;5.088;2024-02-21T14:16:14;9.63;;;4.07;;
69627;SDS011;56850;51.984;5.088;2024-02-21T14:18:41;6.82;;;4.10;;
69627;SDS011;56850;51.984;5.088;2024-02-21T14:21:09;10.93;;;4.65;;
69627;SDS011;56850;51.984;5.088;2024-02-21T14:23:37;8.68;;;4.95;;
69627;SDS011;56850;51.984;5.088;2024-02-21T14:26:04;6.57;;;4.83;;
69627;SDS011;56850;51.984;5.088;2024-02-21T14:28:32;7.88;;;4.20;;
69627;SDS011;56850;51.984;5.088;2024-02-21T14:31:03;8.27;;;4.30;;
69627;SDS011;56850;51.984;5.088;2024-02-21T14:33:32;7.85;;;4.45;;
69627;SDS011;56850;51.984;5.088;2024-02-21T14:35:59;9.48;;;4.28;;
69627;SDS011;56850;51.984;5.088;2024-02-21T14:38:27;7.07;;;3.90;;
69627;SDS011;56850;51.984;5.088;2024-02-21T14:40:54;10.15;;;5.03;;
69627;SDS011;56850;51.984;5.088;2024-02-21T14:43:21;9.90;;;4.55;;
69627;SDS011;56850;51.984;5.088;2024-02-21T14:45:48;7.57;;;4.50;;
69627;SDS011;56850;51.984;5.088;2024-02-21T14:48:15;8.25;;;4.15;;
69627;SDS011;56850;51.984;5.088;2024-02-21T14:50:43;6.00;;;3.77;;
69627;SDS011;56850;51.984;5.088;2024-02-21T14:53:10;8.18;;;4.47;;
69627;SDS011;56850;51.984;5.088;2024-02-21T14:55:38;6.43;;;4.10;;